Adams Cove, New York
Current Conditions -  °F | °C
As of 12:56 AM on Saturday 01 Nov 2014 (Local Time) from KART Reporting Station
Overcast Overcast  
Wind Chill: 33°   Ceiling: 6000
Heat Index: 40°   Visibility: 10mi
Dew Point: 31°   Wind: 13mph
Humidity: 70%   Direction: 40°NE
Pressure: 30.02"   Gusts: NA
Location:  44.0116°N, 76.0789°W
Report Text: KART 010456Z AUTO 04011KT 10SM BKN060 OVC090 04/M01 A3002 RMK AO2 SLP169 T00441006 401001006
Loading
Personal Weather Stations






























Interactive Weather Map
Tropical Storm Tracking
New forecast layout! Learn more

10-Day Weather Forecast

Advertisements
Track Severe Weather on mobile